sensor_id;sensor_type;location;lat;lon;timestamp;pressure;altitude;pressure_sealevel;temperature;humidity
50710;BME280;37033;49.994;21.992;2023-05-19T00:00:43;100141.44;;;8.63;95.51
50710;BME280;37033;49.994;21.992;2023-05-19T00:03:21;100137.36;;;8.64;95.46
50710;BME280;37033;49.994;21.992;2023-05-19T00:05:53;100140.70;;;8.66;95.56
50710;BME280;37033;49.994;21.992;2023-05-19T00:08:26;100139.64;;;8.67;95.38
50710;BME280;37033;49.994;21.992;2023-05-19T00:11:00;100144.02;;;8.68;95.36
50710;BME280;37033;49.994;21.992;2023-05-19T00:13:32;100142.69;;;8.67;95.29
50710;BME280;37033;49.994;21.992;2023-05-19T00:16:04;100140.02;;;8.67;95.17
50710;BME280;37033;49.994;21.992;2023-05-19T00:18:35;100146.16;;;8.67;95.22
50710;BME280;37033;49.994;21.992;2023-05-19T00:21:06;100145.36;;;8.67;95.22
50710;BME280;37033;49.994;21.992;2023-05-19T00:23:37;100148.07;;;8.69;95.28
50710;BME280;37033;49.994;21.992;2023-05-19T00:26:07;100150.82;;;8.70;95.26
50710;BME280;37033;49.994;21.992;2023-05-19T00:28:38;100152.15;;;8.71;95.26
50710;BME280;37033;49.994;21.992;2023-05-19T00:31:09;100149.66;;;8.71;95.19
50710;BME280;37033;49.994;21.992;2023-05-19T00:33:40;100149.65;;;8.71;95.28
50710;BME280;37033;49.994;21.992;2023-05-19T00:36:11;100147.79;;;8.68;95.22
50710;BME280;37033;49.994;21.992;2023-05-19T00:38:42;100144.98;;;8.68;95.20
50710;BME280;37033;49.994;21.992;2023-05-19T00:41:13;100138.23;;;8.67;95.40
50710;BME280;37033;49.994;21.992;2023-05-19T00:43:43;100142.11;;;8.65;95.40
50710;BME280;37033;49.994;21.992;2023-05-19T00:46:16;100144.69;;;8.65;95.26
50710;BME280;37033;49.994;21.992;2023-05-19T00:48:47;100144.06;;;8.65;95.26
50710;BME280;37033;49.994;21.992;2023-05-19T00:51:18;100140.27;;;8.65;95.34
50710;BME280;37033;49.994;21.992;2023-05-19T00:53:50;100142.73;;;8.64;95.28
50710;BME280;37033;49.994;21.992;2023-05-19T00:56:21;100143.86;;;8.64;95.32
50710;BME280;37033;49.994;21.992;2023-05-19T00:58:52;100146.94;;;8.65;95.28
50710;BME280;37033;49.994;21.992;2023-05-19T01:01:24;100146.23;;;8.65;95.23
50710;BME280;37033;49.994;21.992;2023-05-19T01:03:55;100147.61;;;8.66;95.35
50710;BME280;37033;49.994;21.992;2023-05-19T01:06:27;100147.14;;;8.65;95.36
50710;BME280;37033;49.994;21.992;2023-05-19T01:08:58;100146.41;;;8.65;95.24
50710;BME280;37033;49.994;21.992;2023-05-19T01:11:28;100148.52;;;8.66;95.27
50710;BME280;37033;49.994;21.992;2023-05-19T01:13:59;100150.69;;;8.67;95.34
50710;BME280;37033;49.994;21.992;2023-05-19T01:16:33;100155.23;;;8.66;95.45
50710;BME280;37033;49.994;21.992;2023-05-19T01:19:26;100149.65;;;8.67;95.27
50710;BME280;37033;49.994;21.992;2023-05-19T01:22:17;100149.61;;;8.65;95.35
50710;BME280;37033;49.994;21.992;2023-05-19T01:28:17;100147.02;;;8.67;95.36
50710;BME280;37033;49.994;21.992;2023-05-19T01:30:53;100149.75;;;8.68;95.24
50710;BME280;37033;49.994;21.992;2023-05-19T01:33:25;100145.74;;;8.69;95.31
50710;BME280;37033;49.994;21.992;2023-05-19T01:35:58;100145.70;;;8.69;95.33
50710;BME280;37033;49.994;21.992;2023-05-19T01:38:33;100149.48;;;8.69;95.28
50710;BME280;37033;49.994;21.992;2023-05-19T01:41:06;100144.78;;;8.69;95.25
50710;BME280;37033;49.994;21.992;2023-05-19T01:43:38;100143.81;;;8.68;95.29
50710;BME280;37033;49.994;21.992;2023-05-19T01:46:10;100143.19;;;8.68;95.27
50710;BME280;37033;49.994;21.992;2023-05-19T01:48:41;100140.60;;;8.67;95.32
50710;BME280;37033;49.994;21.992;2023-05-19T01:51:12;100139.39;;;8.66;95.35
50710;BME280;37033;49.994;21.992;2023-05-19T01:53:43;100139.69;;;8.65;95.37
50710;BME280;37033;49.994;21.992;2023-05-19T01:56:33;100137.36;;;8.65;95.46
50710;BME280;37033;49.994;21.992;2023-05-19T01:59:19;100138.31;;;8.65;95.43
50710;BME280;37033;49.994;21.992;2023-05-19T02:01:55;100133.76;;;8.65;95.45
50710;BME280;37033;49.994;21.992;2023-05-19T02:04:34;100132.93;;;8.65;95.50
50710;BME280;37033;49.994;21.992;2023-05-19T02:07:14;100136.07;;;8.64;95.51
50710;BME280;37033;49.994;21.992;2023-05-19T02:09:52;100138.48;;;8.62;95.49
50710;BME280;37033;49.994;21.992;2023-05-19T02:12:30;100135.81;;;8.63;95.56
50710;BME280;37033;49.994;21.992;2023-05-19T02:15:05;100135.08;;;8.64;95.54
50710;BME280;37033;49.994;21.992;2023-05-19T02:17:39;100133.27;;;8.63;95.67
50710;BME280;37033;49.994;21.992;2023-05-19T02:20:12;100134.81;;;8.64;95.67
50710;BME280;37033;49.994;21.992;2023-05-19T02:22:43;100135.30;;;8.64;95.63
50710;BME280;37033;49.994;21.992;2023-05-19T02:25:14;100133.48;;;8.65;95.62
50710;BME280;37033;49.994;21.992;2023-05-19T02:27:45;100129.80;;;8.64;95.65
50710;BME280;37033;49.994;21.992;2023-05-19T02:30:17;100127.14;;;8.63;95.55
50710;BME280;37033;49.994;21.992;2023-05-19T02:32:48;100123.92;;;8.63;95.67
50710;BME280;37033;49.994;21.992;2023-05-19T02:35:19;100122.60;;;8.64;95.82
50710;BME280;37033;49.994;21.992;2023-05-19T02:37:49;100119.88;;;8.65;95.62
50710;BME280;37033;49.994;21.992;2023-05-19T02:40:21;100116.95;;;8.66;95.72
50710;BME280;37033;49.994;21.992;2023-05-19T02:42:52;100118.16;;;8.67;95.60
50710;BME280;37033;49.994;21.992;2023-05-19T02:45:22;100120.63;;;8.67;95.69
50710;BME280;37033;49.994;21.992;2023-05-19T02:47:53;100121.25;;;8.67;95.77
50710;BME280;37033;49.994;21.992;2023-05-19T02:50:25;100127.55;;;8.67;95.68
50710;BME280;37033;49.994;21.992;2023-05-19T02:52:55;100128.93;;;8.67;95.67
50710;BME280;37033;49.994;21.992;2023-05-19T02:55:26;100126.02;;;8.68;95.62
50710;BME280;37033;49.994;21.992;2023-05-19T02:57:58;100122.55;;;8.68;95.59
50710;BME280;37033;49.994;21.992;2023-05-19T03:00:28;100121.42;;;8.68;95.70
50710;BME280;37033;49.994;21.992;2023-05-19T03:02:59;100115.93;;;8.69;95.68
50710;BME280;37033;49.994;21.992;2023-05-19T03:05:32;100115.22;;;8.69;95.63
50710;BME280;37033;49.994;21.992;2023-05-19T03:08:03;100121.10;;;8.69;95.56
50710;BME280;37033;49.994;21.992;2023-05-19T03:10:34;100122.34;;;8.68;95.71
50710;BME280;37033;49.994;21.992;2023-05-19T03:13:05;100122.48;;;8.69;95.76
50710;BME280;37033;49.994;21.992;2023-05-19T03:15:35;100124.47;;;8.70;95.77
50710;BME280;37033;49.994;21.992;2023-05-19T03:18:07;100127.01;;;8.71;95.80
50710;BME280;37033;49.994;21.992;2023-05-19T03:20:37;100127.88;;;8.73;95.74
50710;BME280;37033;49.994;21.992;2023-05-19T03:23:10;100131.27;;;8.73;95.72
50710;BME280;37033;49.994;21.992;2023-05-19T03:25:41;100134.17;;;8.74;95.68
50710;BME280;37033;49.994;21.992;2023-05-19T03:28:12;100136.84;;;8.74;95.65
50710;BME280;37033;49.994;21.992;2023-05-19T03:30:42;100135.59;;;8.74;95.67
50710;BME280;37033;49.994;21.992;2023-05-19T03:33:13;100140.21;;;8.76;95.79
50710;BME280;37033;49.994;21.992;2023-05-19T03:35:44;100142.92;;;8.79;95.77
50710;BME280;37033;49.994;21.992;2023-05-19T03:38:15;100144.88;;;8.80;95.72
50710;BME280;37033;49.994;21.992;2023-05-19T03:40:46;100145.26;;;8.80;95.81
50710;BME280;37033;49.994;21.992;2023-05-19T03:43:16;100146.13;;;8.79;95.93
50710;BME280;37033;49.994;21.992;2023-05-19T03:45:47;100148.22;;;8.76;95.72
50710;BME280;37033;49.994;21.992;2023-05-19T03:48:18;100147.48;;;8.76;95.79
50710;BME280;37033;49.994;21.992;2023-05-19T03:50:48;100147.73;;;8.75;95.86
50710;BME280;37033;49.994;21.992;2023-05-19T03:53:19;100145.10;;;8.78;95.91
50710;BME280;37033;49.994;21.992;2023-05-19T03:55:50;100144.42;;;8.78;95.80
50710;BME280;37033;49.994;21.992;2023-05-19T03:58:21;100149.96;;;8.79;95.72
50710;BME280;37033;49.994;21.992;2023-05-19T04:00:52;100150.81;;;8.79;95.83
50710;BME280;37033;49.994;21.992;2023-05-19T04:03:23;100154.39;;;8.79;95.87
50710;BME280;37033;49.994;21.992;2023-05-19T04:05:55;100154.17;;;8.78;95.92
50710;BME280;37033;49.994;21.992;2023-05-19T04:08:26;100155.67;;;8.79;96.03
50710;BME280;37033;49.994;21.992;2023-05-19T04:10:56;100158.58;;;8.75;96.06
50710;BME280;37033;49.994;21.992;2023-05-19T04:13:27;100156.90;;;8.73;96.13
50710;BME280;37033;49.994;21.992;2023-05-19T04:15:58;100164.83;;;8.70;96.07
50710;BME280;37033;49.994;21.992;2023-05-19T04:18:29;100161.75;;;8.69;96.08
50710;BME280;37033;49.994;21.992;2023-05-19T04:21:00;100162.63;;;8.69;96.12
50710;BME280;37033;49.994;21.992;2023-05-19T04:23:31;100162.36;;;8.70;96.17
50710;BME280;37033;49.994;21.992;2023-05-19T04:26:02;100169.42;;;8.72;96.11
50710;BME280;37033;49.994;21.992;2023-05-19T04:28:35;100170.46;;;8.74;96.19
50710;BME280;37033;49.994;21.992;2023-05-19T04:31:08;100168.45;;;8.77;96.17
50710;BME280;37033;49.994;21.992;2023-05-19T04:33:41;100164.41;;;8.80;96.17
50710;BME280;37033;49.994;21.992;2023-05-19T04:36:12;100161.97;;;8.83;96.21
50710;BME280;37033;49.994;21.992;2023-05-19T04:38:43;100163.05;;;8.87;96.34
50710;BME280;37033;49.994;21.992;2023-05-19T04:41:15;100162.85;;;8.90;96.21
50710;BME280;37033;49.994;21.992;2023-05-19T04:43:46;100160.50;;;8.92;96.26
50710;BME280;37033;49.994;21.992;2023-05-19T04:46:18;100156.66;;;8.93;96.18
50710;BME280;37033;49.994;21.992;2023-05-19T04:48:52;100157.69;;;8.96;96.19
50710;BME280;37033;49.994;21.992;2023-05-19T04:51:23;100158.94;;;8.99;96.11
50710;BME280;37033;49.994;21.992;2023-05-19T04:53:56;100156.64;;;9.01;95.99
50710;BME280;37033;49.994;21.992;2023-05-19T04:56:27;100157.19;;;9.03;95.89
50710;BME280;37033;49.994;21.992;2023-05-19T04:58:58;100158.89;;;9.05;95.99
50710;BME280;37033;49.994;21.992;2023-05-19T05:01:28;100157.27;;;9.05;95.84
50710;BME280;37033;49.994;21.992;2023-05-19T05:04:02;100159.80;;;9.07;95.87
50710;BME280;37033;49.994;21.992;2023-05-19T05:06:33;100163.09;;;9.09;95.81
50710;BME280;37033;49.994;21.992;2023-05-19T05:09:06;100167.26;;;9.14;95.90
50710;BME280;37033;49.994;21.992;2023-05-19T05:11:40;100172.88;;;9.17;95.78
50710;BME280;37033;49.994;21.992;2023-05-19T05:14:12;100170.99;;;9.22;95.74
50710;BME280;37033;49.994;21.992;2023-05-19T05:16:45;100173.02;;;9.27;95.65
50710;BME280;37033;49.994;21.992;2023-05-19T05:19:17;100170.26;;;9.30;95.64
50710;BME280;37033;49.994;21.992;2023-05-19T05:21:49;100171.24;;;9.32;95.38
50710;BME280;37033;49.994;21.992;2023-05-19T05:24:20;100174.96;;;9.34;95.24
50710;BME280;37033;49.994;21.992;2023-05-19T05:26:52;100172.77;;;9.34;95.10
50710;BME280;37033;49.994;21.992;2023-05-19T05:29:23;100172.58;;;9.33;94.95
50710;BME280;37033;49.994;21.992;2023-05-19T05:31:54;100177.95;;;9.33;94.85
50710;BME280;37033;49.994;21.992;2023-05-19T05:34:24;100178.25;;;9.35;94.85
50710;BME280;37033;49.994;21.992;2023-05-19T05:36:55;100180.21;;;9.32;94.71
50710;BME280;37033;49.994;21.992;2023-05-19T05:39:26;100173.70;;;9.34;94.86
50710;BME280;37033;49.994;21.992;2023-05-19T05:41:57;100176.70;;;9.34;94.65
50710;BME280;37033;49.994;21.992;2023-05-19T05:44:28;100177.36;;;9.36;94.75
50710;BME280;37033;49.994;21.992;2023-05-19T05:47:00;100178.10;;;9.38;94.70
50710;BME280;37033;49.994;21.992;2023-05-19T05:49:33;100173.86;;;9.40;94.84
50710;BME280;37033;49.994;21.992;2023-05-19T05:52:08;100173.17;;;9.41;94.61
50710;BME280;37033;49.994;21.992;2023-05-19T05:54:43;100171.55;;;9.41;94.70
50710;BME280;37033;49.994;21.992;2023-05-19T05:57:15;100171.25;;;9.43;94.73
50710;BME280;37033;49.994;21.992;2023-05-19T05:59:46;100171.55;;;9.48;94.75
50710;BME280;37033;49.994;21.992;2023-05-19T06:02:17;100170.45;;;9.54;94.79
50710;BME280;37033;49.994;21.992;2023-05-19T06:04:47;100170.20;;;9.62;94.93
50710;BME280;37033;49.994;21.992;2023-05-19T06:07:19;100171.04;;;9.71;94.65
50710;BME280;37033;49.994;21.992;2023-05-19T06:09:50;100170.05;;;9.77;94.29
50710;BME280;37033;49.994;21.992;2023-05-19T06:12:21;100170.20;;;9.81;94.10
50710;BME280;37033;49.994;21.992;2023-05-19T06:14:52;100171.30;;;9.85;94.08
50710;BME280;37033;49.994;21.992;2023-05-19T06:17:23;100174.28;;;9.90;93.95
50710;BME280;37033;49.994;21.992;2023-05-19T06:19:53;100177.08;;;9.92;93.58
50710;BME280;37033;49.994;21.992;2023-05-19T06:22:24;100178.83;;;9.91;93.07
50710;BME280;37033;49.994;21.992;2023-05-19T06:24:56;100176.96;;;9.89;92.89
50710;BME280;37033;49.994;21.992;2023-05-19T06:27:27;100179.80;;;9.89;92.93
50710;BME280;37033;49.994;21.992;2023-05-19T06:29:57;100185.14;;;9.91;92.99
50710;BME280;37033;49.994;21.992;2023-05-19T06:32:28;100181.95;;;9.94;92.94
50710;BME280;37033;49.994;21.992;2023-05-19T06:35:00;100186.73;;;9.97;92.88
50710;BME280;37033;49.994;21.992;2023-05-19T06:37:30;100188.18;;;9.99;92.83
50710;BME280;37033;49.994;21.992;2023-05-19T06:40:01;100196.44;;;10.02;92.33
50710;BME280;37033;49.994;21.992;2023-05-19T06:42:32;100194.73;;;10.02;92.19
50710;BME280;37033;49.994;21.992;2023-05-19T06:45:04;100197.73;;;10.05;92.44
50710;BME280;37033;49.994;21.992;2023-05-19T06:47:34;100198.17;;;10.07;91.90
50710;BME280;37033;49.994;21.992;2023-05-19T06:50:07;100204.88;;;10.11;92.07
50710;BME280;37033;49.994;21.992;2023-05-19T06:52:37;100201.09;;;10.14;91.98
50710;BME280;37033;49.994;21.992;2023-05-19T06:55:09;100201.87;;;10.17;91.93
50710;BME280;37033;49.994;21.992;2023-05-19T06:57:40;100203.52;;;10.19;91.66
50710;BME280;37033;49.994;21.992;2023-05-19T07:00:13;100201.59;;;10.21;91.78
50710;BME280;37033;49.994;21.992;2023-05-19T07:02:45;100206.08;;;10.25;91.91
50710;BME280;37033;49.994;21.992;2023-05-19T07:05:16;100201.31;;;10.31;91.86
50710;BME280;37033;49.994;21.992;2023-05-19T07:07:46;100203.47;;;10.33;91.36
50710;BME280;37033;49.994;21.992;2023-05-19T07:10:17;100202.33;;;10.34;91.38
50710;BME280;37033;49.994;21.992;2023-05-19T07:12:51;100201.39;;;10.37;91.00
50710;BME280;37033;49.994;21.992;2023-05-19T07:15:21;100201.90;;;10.35;90.97
50710;BME280;37033;49.994;21.992;2023-05-19T07:17:52;100201.31;;;10.37;90.95
50710;BME280;37033;49.994;21.992;2023-05-19T07:20:23;100196.39;;;10.41;90.93
50710;BME280;37033;49.994;21.992;2023-05-19T07:22:53;100200.38;;;10.43;91.01
50710;BME280;37033;49.994;21.992;2023-05-19T07:25:24;100201.34;;;10.48;90.93
50710;BME280;37033;49.994;21.992;2023-05-19T07:27:57;100201.56;;;10.53;90.84
50710;BME280;37033;49.994;21.992;2023-05-19T07:30:28;100200.59;;;10.55;90.39
50710;BME280;37033;49.994;21.992;2023-05-19T07:32:59;100199.48;;;10.55;90.28
50710;BME280;37033;49.994;21.992;2023-05-19T07:35:30;100199.73;;;10.56;90.05
50710;BME280;37033;49.994;21.992;2023-05-19T07:38:00;100200.39;;;10.54;89.88
50710;BME280;37033;49.994;21.992;2023-05-19T07:40:31;100195.51;;;10.53;89.84
50710;BME280;37033;49.994;21.992;2023-05-19T07:43:02;100195.88;;;10.52;89.99
50710;BME280;37033;49.994;21.992;2023-05-19T07:45:33;100198.96;;;10.55;90.05
50710;BME280;37033;49.994;21.992;2023-05-19T07:48:04;100199.17;;;10.58;89.60
50710;BME280;37033;49.994;21.992;2023-05-19T07:50:36;100200.06;;;10.57;89.46
50710;BME280;37033;49.994;21.992;2023-05-19T07:53:07;100203.66;;;10.59;89.51
50710;BME280;37033;49.994;21.992;2023-05-19T07:55:39;100204.84;;;10.62;89.61
50710;BME280;37033;49.994;21.992;2023-05-19T07:58:09;100205.08;;;10.64;89.12
50710;BME280;37033;49.994;21.992;2023-05-19T08:00:40;100205.08;;;10.64;89.15
50710;BME280;37033;49.994;21.992;2023-05-19T08:03:12;100206.77;;;10.66;89.33
50710;BME280;37033;49.994;21.992;2023-05-19T08:05:46;100206.64;;;10.71;89.41
50710;BME280;37033;49.994;21.992;2023-05-19T08:08:16;100208.46;;;10.74;89.54
50710;BME280;37033;49.994;21.992;2023-05-19T08:10:48;100209.66;;;10.80;89.62
50710;BME280;37033;49.994;21.992;2023-05-19T08:13:18;100207.85;;;10.85;89.42
50710;BME280;37033;49.994;21.992;2023-05-19T08:15:50;100200.26;;;10.92;89.61
50710;BME280;37033;49.994;21.992;2023-05-19T08:18:22;100203.17;;;10.98;89.59
50710;BME280;37033;49.994;21.992;2023-05-19T08:20:53;100205.50;;;11.05;89.37
50710;BME280;37033;49.994;21.992;2023-05-19T08:23:24;100203.80;;;11.08;89.05
50710;BME280;37033;49.994;21.992;2023-05-19T08:25:55;100197.68;;;11.11;88.94
50710;BME280;37033;49.994;21.992;2023-05-19T08:28:25;100196.64;;;11.16;89.03
50710;BME280;37033;49.994;21.992;2023-05-19T08:30:56;100196.02;;;11.19;88.61
50710;BME280;37033;49.994;21.992;2023-05-19T08:33:27;100196.58;;;11.20;88.09
50710;BME280;37033;49.994;21.992;2023-05-19T08:35:58;100197.19;;;11.19;87.93
50710;BME280;37033;49.994;21.992;2023-05-19T08:38:29;100198.16;;;11.25;88.18
50710;BME280;37033;49.994;21.992;2023-05-19T08:41:00;100199.20;;;11.31;88.00
50710;BME280;37033;49.994;21.992;2023-05-19T08:43:31;100199.23;;;11.35;88.01
50710;BME280;37033;49.994;21.992;2023-05-19T08:46:04;100203.54;;;11.39;87.74
50710;BME280;37033;49.994;21.992;2023-05-19T08:48:40;100208.23;;;11.36;87.28
50710;BME280;37033;49.994;21.992;2023-05-19T08:51:19;100207.88;;;11.33;87.32
50710;BME280;37033;49.994;21.992;2023-05-19T08:53:55;100207.66;;;11.37;87.60
50710;BME280;37033;49.994;21.992;2023-05-19T08:56:28;100207.71;;;11.42;87.37
50710;BME280;37033;49.994;21.992;2023-05-19T08:59:00;100209.91;;;11.43;87.38
50710;BME280;37033;49.994;21.992;2023-05-19T09:01:32;100211.91;;;11.46;87.25
50710;BME280;37033;49.994;21.992;2023-05-19T09:04:05;100208.30;;;11.55;87.49
50710;BME280;37033;49.994;21.992;2023-05-19T09:06:36;100205.80;;;11.61;87.19
50710;BME280;37033;49.994;21.992;2023-05-19T09:09:09;100205.15;;;11.62;86.65
50710;BME280;37033;49.994;21.992;2023-05-19T09:11:40;100203.14;;;11.59;86.17
50710;BME280;37033;49.994;21.992;2023-05-19T09:14:14;100204.40;;;11.55;86.35
50710;BME280;37033;49.994;21.992;2023-05-19T09:16:45;100205.30;;;11.54;86.05
50710;BME280;37033;49.994;21.992;2023-05-19T09:19:19;100202.46;;;11.49;86.00
50710;BME280;37033;49.994;21.992;2023-05-19T09:22:00;100200.70;;;11.45;85.63
50710;BME280;37033;49.994;21.992;2023-05-19T09:24:32;100200.94;;;11.37;85.87
50710;BME280;37033;49.994;21.992;2023-05-19T09:27:03;100202.98;;;11.37;85.99
50710;BME280;37033;49.994;21.992;2023-05-19T09:29:34;100200.23;;;11.39;86.13
50710;BME280;37033;49.994;21.992;2023-05-19T09:32:06;100198.01;;;11.40;86.03
50710;BME280;37033;49.994;21.992;2023-05-19T09:34:42;100199.64;;;11.40;86.09
50710;BME280;37033;49.994;21.992;2023-05-19T09:37:14;100195.66;;;11.40;86.07
50710;BME280;37033;49.994;21.992;2023-05-19T09:39:45;100190.05;;;11.43;86.37
50710;BME280;37033;49.994;21.992;2023-05-19T09:42:26;100194.58;;;11.47;86.27
50710;BME280;37033;49.994;21.992;2023-05-19T09:45:01;100194.85;;;11.53;86.28
50710;BME280;37033;49.994;21.992;2023-05-19T09:47:35;100190.64;;;11.60;86.35
50710;BME280;37033;49.994;21.992;2023-05-19T09:50:09;100194.44;;;11.68;86.27
50710;BME280;37033;49.994;21.992;2023-05-19T09:52:42;100195.52;;;11.73;86.36
50710;BME280;37033;49.994;21.992;2023-05-19T09:55:13;100194.67;;;11.79;86.05
50710;BME280;37033;49.994;21.992;2023-05-19T09:57:45;100191.45;;;11.85;86.17
50710;BME280;37033;49.994;21.992;2023-05-19T10:00:17;100194.91;;;11.93;85.95
50710;BME280;37033;49.994;21.992;2023-05-19T10:02:49;100202.32;;;11.96;85.49
50710;BME280;37033;49.994;21.992;2023-05-19T10:05:21;100201.42;;;11.98;85.54
50710;BME280;37033;49.994;21.992;2023-05-19T10:07:54;100203.37;;;11.99;85.38
50710;BME280;37033;49.994;21.992;2023-05-19T10:10:25;100204.30;;;11.95;84.85
50710;BME280;37033;49.994;21.992;2023-05-19T10:12:59;100204.44;;;11.87;84.85
50710;BME280;37033;49.994;21.992;2023-05-19T10:15:32;100205.53;;;11.82;84.90
50710;BME280;37033;49.994;21.992;2023-05-19T10:18:03;100209.69;;;11.76;84.92
50710;BME280;37033;49.994;21.992;2023-05-19T10:20:35;100209.89;;;11.72;84.98
50710;BME280;37033;49.994;21.992;2023-05-19T10:23:06;100210.67;;;11.70;85.01
50710;BME280;37033;49.994;21.992;2023-05-19T10:25:37;100204.82;;;11.69;85.20
50710;BME280;37033;49.994;21.992;2023-05-19T10:28:12;100203.94;;;11.74;85.28
50710;BME280;37033;49.994;21.992;2023-05-19T10:30:48;100205.46;;;11.78;85.16
50710;BME280;37033;49.994;21.992;2023-05-19T10:33:21;100202.27;;;11.78;84.86
50710;BME280;37033;49.994;21.992;2023-05-19T10:36:14;100197.92;;;11.75;84.63
50710;BME280;37033;49.994;21.992;2023-05-19T10:38:55;100192.58;;;11.76;85.19
50710;BME280;37033;49.994;21.992;2023-05-19T10:41:35;100190.75;;;11.81;85.08
50710;BME280;37033;49.994;21.992;2023-05-19T10:44:12;100191.61;;;11.83;84.64
50710;BME280;37033;49.994;21.992;2023-05-19T10:46:47;100191.17;;;11.81;84.37
50710;BME280;37033;49.994;21.992;2023-05-19T10:49:22;100193.70;;;11.82;84.74
50710;BME280;37033;49.994;21.992;2023-05-19T10:51:55;100195.63;;;11.86;84.83
50710;BME280;37033;49.994;21.992;2023-05-19T10:57:27;100193.23;;;11.95;84.66
50710;BME280;37033;49.994;21.992;2023-05-19T11:00:03;100197.27;;;12.03;84.84
50710;BME280;37033;49.994;21.992;2023-05-19T11:02:43;100193.50;;;12.09;84.34
50710;BME280;37033;49.994;21.992;2023-05-19T11:05:15;100186.46;;;12.12;84.20
50710;BME280;37033;49.994;21.992;2023-05-19T11:07:55;100187.84;;;12.14;84.08
50710;BME280;37033;49.994;21.992;2023-05-19T11:10:31;100196.48;;;12.17;83.63
50710;BME280;37033;49.994;21.992;2023-05-19T11:13:02;100193.48;;;12.14;83.50
50710;BME280;37033;49.994;21.992;2023-05-19T11:15:36;100192.98;;;12.14;83.47
50710;BME280;37033;49.994;21.992;2023-05-19T11:18:07;100197.13;;;12.14;83.41
50710;BME280;37033;49.994;21.992;2023-05-19T11:20:39;100196.83;;;12.15;83.51
50710;BME280;37033;49.994;21.992;2023-05-19T11:23:13;100192.06;;;12.19;83.42
50710;BME280;37033;49.994;21.992;2023-05-19T11:25:47;100196.79;;;12.22;83.55
50710;BME280;37033;49.994;21.992;2023-05-19T11:28:19;100198.02;;;12.28;83.31
50710;BME280;37033;49.994;21.992;2023-05-19T11:30:55;100194.48;;;12.30;83.26
50710;BME280;37033;49.994;21.992;2023-05-19T11:33:27;100200.51;;;12.37;83.14
50710;BME280;37033;49.994;21.992;2023-05-19T11:35:58;100199.09;;;12.39;82.43
50710;BME280;37033;49.994;21.992;2023-05-19T11:38:29;100196.08;;;12.41;82.79
50710;BME280;37033;49.994;21.992;2023-05-19T11:41:01;100195.41;;;12.50;83.20
50710;BME280;37033;49.994;21.992;2023-05-19T11:43:32;100197.13;;;12.57;83.21
50710;BME280;37033;49.994;21.992;2023-05-19T11:46:03;100200.94;;;12.66;82.66
50710;BME280;37033;49.994;21.992;2023-05-19T11:48:34;100197.86;;;12.67;82.18
50710;BME280;37033;49.994;21.992;2023-05-19T11:51:06;100198.72;;;12.67;81.89
50710;BME280;37033;49.994;21.992;2023-05-19T11:53:36;100199.49;;;12.67;81.95
50710;BME280;37033;49.994;21.992;2023-05-19T11:56:11;100202.71;;;12.73;82.19
50710;BME280;37033;49.994;21.992;2023-05-19T11:58:41;100202.79;;;12.78;81.90
50710;BME280;37033;49.994;21.992;2023-05-19T12:01:12;100198.68;;;12.83;81.87
50710;BME280;37033;49.994;21.992;2023-05-19T12:03:43;100201.44;;;12.93;81.99
50710;BME280;37033;49.994;21.992;2023-05-19T12:06:15;100204.66;;;13.00;81.52
50710;BME280;37033;49.994;21.992;2023-05-19T12:08:46;100204.16;;;13.08;81.21
50710;BME280;37033;49.994;21.992;2023-05-19T12:11:17;100203.06;;;13.10;80.92
50710;BME280;37033;49.994;21.992;2023-05-19T12:13:48;100201.21;;;13.12;80.81
50710;BME280;37033;49.994;21.992;2023-05-19T12:16:21;100204.61;;;13.13;80.07
50710;BME280;37033;49.994;21.992;2023-05-19T12:18:53;100202.40;;;13.09;80.20
50710;BME280;37033;49.994;21.992;2023-05-19T12:21:24;100205.25;;;13.12;80.69
50710;BME280;37033;49.994;21.992;2023-05-19T12:23:55;100202.68;;;13.19;80.79
50710;BME280;37033;49.994;21.992;2023-05-19T12:26:26;100203.04;;;13.25;80.58
50710;BME280;37033;49.994;21.992;2023-05-19T12:28:58;100200.63;;;13.34;81.21
50710;BME280;37033;49.994;21.992;2023-05-19T12:31:29;100195.13;;;13.50;81.01
50710;BME280;37033;49.994;21.992;2023-05-19T12:34:00;100195.36;;;13.60;80.71
50710;BME280;37033;49.994;21.992;2023-05-19T12:36:32;100193.70;;;13.66;80.17
50710;BME280;37033;49.994;21.992;2023-05-19T12:39:04;100190.52;;;13.66;79.56
50710;BME280;37033;49.994;21.992;2023-05-19T12:41:36;100184.37;;;13.66;79.65
50710;BME280;37033;49.994;21.992;2023-05-19T12:44:15;100187.45;;;13.68;79.30
50710;BME280;37033;49.994;21.992;2023-05-19T12:46:46;100187.19;;;13.68;79.42
50710;BME280;37033;49.994;21.992;2023-05-19T12:49:19;100188.27;;;13.72;79.68
50710;BME280;37033;49.994;21.992;2023-05-19T12:51:54;100187.15;;;13.74;79.76
50710;BME280;37033;49.994;21.992;2023-05-19T12:54:25;100189.14;;;13.77;79.04
50710;BME280;37033;49.994;21.992;2023-05-19T12:56:57;100190.11;;;13.74;78.58
50710;BME280;37033;49.994;21.992;2023-05-19T12:59:29;100192.39;;;13.65;78.40
50710;BME280;37033;49.994;21.992;2023-05-19T13:02:03;100189.23;;;13.58;78.38
50710;BME280;37033;49.994;21.992;2023-05-19T13:04:34;100187.27;;;13.61;78.96
50710;BME280;37033;49.994;21.992;2023-05-19T13:07:05;100186.67;;;13.61;78.54
50710;BME280;37033;49.994;21.992;2023-05-19T13:09:35;100189.84;;;13.63;78.70
50710;BME280;37033;49.994;21.992;2023-05-19T13:12:08;100193.87;;;13.63;78.23
50710;BME280;37033;49.994;21.992;2023-05-19T13:14:38;100195.58;;;13.58;78.10
50710;BME280;37033;49.994;21.992;2023-05-19T13:17:10;100194.45;;;13.51;78.28